Time;durP1;ratioP1;P1;durP2;ratioP2;P2;SDS_P1;SDS_P2;PMS_P1;PMS_P2;Temp;Humidity;BMP_temperature;BMP_pressure;BME280_temperature;BME280_humidity;BME280_pressure;Samples;Min_cycle;Max_cycle;Signal;HPM_P1;HPM_P2
2023/01/26 00:00:37;;;;;;;;;69.50;55.50;;;;;5.26;62.95;101981.66;2104915;27;45548;-64
2023/01/26 00:01:38;;;;;;;;;64.50;53.00;;;;;5.27;63.00;101983.44;2073383;27;46761;-64
2023/01/26 00:02:38;;;;;;;;;59.00;45.25;;;;;5.27;63.49;101983.44;2063384;28;46319;-64
2023/01/26 00:03:39;;;;;;;;;62.25;48.50;;;;;5.27;62.97;101986.94;2075058;27;46408;-65
2023/01/26 00:04:39;;;;;;;;;59.25;47.75;;;;;5.27;63.29;101988.69;2069626;27;45884;-65
2023/01/26 00:05:40;;;;;;;;;48.75;41.75;;;;;5.27;63.21;101989.59;2068921;27;46455;-65
2023/01/26 00:06:40;;;;;;;;;56.50;45.25;;;;;5.28;63.61;101985.22;2085861;27;46465;-65
2023/01/26 00:07:44;;;;;;;;;55.00;47.00;;;;;5.28;63.31;101979.94;2070291;27;46255;-67
2023/01/26 00:08:50;;;;;;;;;59.60;49.80;;;;;5.29;63.27;101981.72;2068388;27;45709;-66
2023/01/26 00:09:51;;;;;;;;;52.80;42.80;;;;;5.28;63.70;101977.31;2070968;28;46441;-65
2023/01/26 00:10:51;;;;;;;;;59.25;46.25;;;;;5.29;63.99;101981.72;2068762;28;45518;-66
2023/01/26 00:11:51;;;;;;;;;58.00;46.75;;;;;5.30;63.88;101973.84;2072007;27;46322;-64
2023/01/26 00:12:51;;;;;;;;;63.00;49.25;;;;;5.30;63.51;101975.59;2065396;27;45885;-65
2023/01/26 00:13:53;;;;;;;;;48.25;42.50;;;;;5.30;64.05;101979.13;2066718;28;46653;-66
2023/01/26 00:14:53;;;;;;;;;57.00;46.60;;;;;5.32;64.10;101971.25;2083210;27;45638;-66
2023/01/26 00:15:53;;;;;;;;;60.75;47.25;;;;;5.32;63.88;101969.50;2071201;27;46440;-66
2023/01/26 00:16:54;;;;;;;;;52.50;43.75;;;;;5.31;64.16;101967.72;2104284;27;45511;-66
2023/01/26 00:17:54;;;;;;;;;52.50;44.25;;;;;5.30;63.95;101958.06;2068128;28;46784;-66
2023/01/26 00:18:54;;;;;;;;;57.75;46.00;;;;;5.30;64.11;101958.06;2090096;28;46202;-66
2023/01/26 00:19:57;;;;;;;;;65.50;50.25;;;;;5.32;64.14;101958.09;2054647;28;46289;-66
2023/01/26 00:20:59;;;;;;;;;58.60;46.00;;;;;5.32;63.98;101952.81;2061414;27;46534;-66
2023/01/26 00:21:59;;;;;;;;;56.60;47.00;;;;;5.30;63.99;101951.91;2071306;27;45849;-66
2023/01/26 00:22:59;;;;;;;;;64.25;47.75;;;;;5.30;63.86;101950.16;2083158;27;46224;-64
2023/01/26 00:24:00;;;;;;;;;58.50;46.50;;;;;5.29;63.91;101951.03;2068024;28;46474;-66
2023/01/26 00:25:00;;;;;;;;;58.00;45.75;;;;;5.29;64.25;101943.13;2099092;27;46294;-66
2023/01/26 00:26:01;;;;;;;;;56.00;46.00;;;;;5.30;64.22;101944.91;2071215;27;45824;-65
2023/01/26 00:27:01;;;;;;;;;55.00;46.25;;;;;5.31;64.60;101951.03;2064151;28;46742;-66
2023/01/26 00:28:02;;;;;;;;;56.75;45.75;;;;;5.31;64.58;101948.41;2069589;27;46302;-66
2023/01/26 00:29:02;;;;;;;;;60.50;49.00;;;;;5.30;64.75;101939.63;2075306;27;45918;-66
2023/01/26 00:30:03;;;;;;;;;59.00;44.50;;;;;5.32;64.55;101942.28;2066497;27;46829;-66
2023/01/26 00:31:15;;;;;;;;;58.80;47.00;;;;;5.30;64.46;101939.63;2078810;27;46387;-67
2023/01/26 00:32:15;;;;;;;;;58.80;49.60;;;;;5.27;64.46;101931.69;2075566;27;46164;-66
2023/01/26 00:33:16;;;;;;;;;52.50;40.00;;;;;5.26;64.72;101937.81;2071295;27;46400;-66
2023/01/26 00:34:16;;;;;;;;;60.50;48.25;;;;;5.24;64.84;101933.38;2069549;27;46146;-67
2023/01/26 00:35:16;;;;;;;;;61.25;47.00;;;;;5.22;64.73;101935.97;2070957;27;45633;-65
2023/01/26 00:36:17;;;;;;;;;56.00;45.00;;;;;5.22;65.05;101930.72;2085622;27;45752;-66
2023/01/26 00:37:17;;;;;;;;;54.50;42.50;;;;;5.22;65.16;101928.09;2073550;27;46720;-65
2023/01/26 00:38:18;;;;;;;;;59.75;48.50;;;;;5.24;65.08;101925.47;2057973;28;46662;-65
2023/01/26 00:39:18;;;;;;;;;57.50;47.25;;;;;5.25;65.11;101922.00;2073140;28;46490;-66
2023/01/26 00:40:19;;;;;;;;;55.00;41.75;;;;;5.25;65.23;101920.25;2072615;28;46598;-67
2023/01/26 00:42:38;;;;;;;;;49.20;41.20;;;;;5.27;65.52;101917.63;2065330;27;46714;-65
2023/01/26 00:43:39;;;;;;;;;55.50;46.75;;;;;5.28;65.20;101914.16;2083482;27;46508;-65
2023/01/26 00:44:40;;;;;;;;;56.25;46.50;;;;;5.28;65.61;101908.88;2068779;27;46176;-65
2023/01/26 00:45:41;;;;;;;;;55.60;46.20;;;;;5.29;65.66;101905.38;2074766;27;46025;-66
2023/01/26 00:46:41;;;;;;;;;59.75;47.25;;;;;5.30;65.88;101901.91;2070626;27;46300;-66
2023/01/26 00:47:43;;;;;;;;;51.50;39.50;;;;;5.30;65.41;101902.78;2072618;27;47267;-66
2023/01/26 00:48:43;;;;;;;;;60.80;48.60;;;;;5.32;65.93;101897.53;2072326;27;46242;-65
2023/01/26 00:49:44;;;;;;;;;55.50;46.25;;;;;5.33;65.39;101899.31;2067436;27;46635;-66
2023/01/26 00:50:44;;;;;;;;;55.25;45.00;;;;;5.34;65.62;101898.50;2095801;27;46054;-66
2023/01/26 00:51:45;;;;;;;;;60.50;47.50;;;;;5.35;65.73;101907.28;2068908;27;46641;-65
2023/01/26 00:52:45;;;;;;;;;61.75;49.00;;;;;5.36;65.83;101901.16;2071323;27;46659;-65
2023/01/26 00:53:45;;;;;;;;;61.75;46.75;;;;;5.37;65.73;101897.66;2077060;27;46588;-64
2023/01/26 00:54:46;;;;;;;;;55.25;46.00;;;;;5.36;65.67;101898.50;2062595;28;45573;-65
2023/01/26 00:55:46;;;;;;;;;58.00;44.50;;;;;5.37;65.99;101900.28;2065608;28;46855;-65
2023/01/26 00:56:46;;;;;;;;;63.00;48.50;;;;;5.37;65.64;101895.91;2065713;27;46582;-65
2023/01/26 00:57:48;;;;;;;;;54.00;44.75;;;;;5.39;65.66;101901.19;2068277;27;46250;-66
2023/01/26 00:58:49;;;;;;;;;60.80;48.00;;;;;5.38;65.91;101897.69;2085667;27;46544;-64
2023/01/26 00:59:49;;;;;;;;;61.25;46.75;;;;;5.38;66.04;101888.91;2068128;27;46444;-64
2023/01/26 01:00:49;;;;;;;;;57.75;48.00;;;;;5.37;65.88;101888.00;2105980;27;46300;-65
2023/01/26 01:01:49;;;;;;;;;55.50;44.75;;;;;5.38;66.20;101892.41;2073328;27;46418;-63
2023/01/26 01:02:50;;;;;;;;;52.50;44.25;;;;;5.38;65.90;101892.41;2055193;28;46779;-65
2023/01/26 01:03:51;;;;;;;;;53.00;45.25;;;;;5.39;65.87;101890.66;2066093;27;46236;-65
2023/01/26 01:04:51;;;;;;;;;54.00;45.50;;;;;5.38;65.98;101889.78;2065844;27;46967;-65
2023/01/26 01:05:51;;;;;;;;;58.75;44.50;;;;;5.39;65.84;101883.66;2077124;27;45130;-65
2023/01/26 01:06:52;;;;;;;;;55.50;44.00;;;;;5.39;66.28;101881.03;2085566;27;46129;-65
2023/01/26 01:07:52;;;;;;;;;54.00;42.00;;;;;5.39;66.25;101881.03;2067954;28;45489;-64
2023/01/26 01:08:52;;;;;;;;;54.75;42.75;;;;;5.38;66.19;101883.63;2100230;27;46312;-64
2023/01/26 01:09:52;;;;;;;;;55.25;44.00;;;;;5.37;66.53;101874.84;2072268;27;45774;-64
2023/01/26 01:11:06;;;;;;;;;49.25;40.75;;;;;5.37;66.33;101877.47;2069588;27;46719;-65
2023/01/26 01:12:07;;;;;;;;;47.40;41.00;;;;;5.37;66.21;101880.13;2086786;27;45722;-65
2023/01/26 01:13:07;;;;;;;;;56.75;44.50;;;;;5.36;66.22;101885.34;2058322;28;46028;-65
2023/01/26 01:14:08;;;;;;;;;55.00;46.25;;;;;5.36;66.62;101882.72;2057847;28;46594;-65
2023/01/26 01:15:09;;;;;;;;;53.60;45.60;;;;;5.35;66.28;101883.56;2067789;27;46655;-63
2023/01/26 01:16:12;;;;;;;;;60.25;46.50;;;;;5.33;66.24;101880.88;2070404;27;46348;-65
2023/01/26 01:17:12;;;;;;;;;57.20;46.20;;;;;5.32;66.12;101879.13;2074708;27;46358;-62
2023/01/26 01:18:13;;;;;;;;;60.50;47.75;;;;;5.32;66.37;101880.00;2071322;27;46517;-63
2023/01/26 01:19:15;;;;;;;;;52.25;45.00;;;;;5.31;66.60;101878.22;2105849;27;46365;-65
2023/01/26 01:20:15;;;;;;;;;57.20;44.00;;;;;5.32;66.34;101881.75;2108138;27;46477;-63
2023/01/26 01:21:16;;;;;;;;;57.00;47.25;;;;;5.34;65.93;101876.53;2071586;27;46770;-64
2023/01/26 01:22:17;;;;;;;;;62.00;48.75;;;;;5.32;66.31;101877.38;2066898;28;46853;-64
2023/01/26 01:23:17;;;;;;;;;61.00;47.50;;;;;5.30;65.98;101881.72;2067296;27;46604;-64
2023/01/26 01:24:18;;;;;;;;;51.75;41.75;;;;;5.29;65.63;101879.06;2065556;28;45208;-65
2023/01/26 01:25:18;;;;;;;;;56.00;43.50;;;;;5.27;65.91;101875.53;2065192;28;46329;-65
2023/01/26 01:26:18;;;;;;;;;63.00;48.25;;;;;5.26;66.25;101884.28;2066437;28;46503;-63
2023/01/26 01:27:19;;;;;;;;;63.25;48.00;;;;;5.24;66.29;101875.47;2071599;27;46438;-63
2023/01/26 01:28:19;;;;;;;;;58.50;47.00;;;;;5.24;65.79;101875.47;2068976;27;46350;-64
2023/01/26 01:29:19;;;;;;;;;54.75;44.50;;;;;5.26;65.99;101872.00;2069943;27;46665;-65
2023/01/26 01:30:20;;;;;;;;;62.50;48.25;;;;;5.26;65.90;101871.13;2066148;27;46391;-64
2023/01/26 01:31:21;;;;;;;;;47.50;42.00;;;;;5.26;66.00;101871.13;2070663;27;46962;-64
2023/01/26 01:32:21;;;;;;;;;54.00;44.60;;;;;5.26;66.07;101877.28;2072661;27;46360;-64
2023/01/26 01:33:22;;;;;;;;;56.75;46.00;;;;;5.27;66.16;101875.53;2068517;27;47022;-64
2023/01/26 01:34:23;;;;;;;;;59.20;47.00;;;;;5.26;65.55;101874.66;2069133;28;46426;-64
2023/01/26 01:35:23;;;;;;;;;58.00;48.50;;;;;5.26;66.18;101866.75;2053123;28;46783;-64
2023/01/26 01:36:24;;;;;;;;;58.75;49.75;;;;;5.27;66.05;101873.78;2053368;28;47225;-64
2023/01/26 01:37:24;;;;;;;;;57.00;47.00;;;;;5.27;65.96;101865.88;2069751;28;45445;-65
2023/01/26 01:38:26;;;;;;;;;61.00;46.75;;;;;5.30;66.09;101870.31;2067298;27;47117;-65
2023/01/26 01:39:26;;;;;;;;;48.40;39.00;;;;;5.30;65.93;101868.56;2070230;27;46303;-65
2023/01/26 01:40:27;;;;;;;;;62.75;48.25;;;;;5.30;66.11;101871.19;2065303;27;46052;-64
2023/01/26 01:41:27;;;;;;;;;57.75;44.50;;;;;5.31;66.22;101866.81;2067419;27;46988;-65
2023/01/26 01:42:27;;;;;;;;;53.75;45.75;;;;;5.30;65.87;101868.56;2064782;27;46855;-64
2023/01/26 01:43:28;;;;;;;;;61.25;48.00;;;;;5.30;65.96;101873.84;2067636;27;46705;-64
2023/01/26 01:44:28;;;;;;;;;54.00;46.00;;;;;5.29;65.80;101877.31;2069984;28;46424;-63
2023/01/26 01:45:40;;;;;;;;;56.75;46.50;;;;;5.30;66.14;101873.84;2060288;28;46677;-64
2023/01/26 01:46:46;;;;;;;;;57.40;46.20;;;;;5.28;66.07;101872.94;2063533;28;47258;-64
2023/01/26 01:47:46;;;;;;;;;62.80;50.60;;;;;5.28;65.97;101870.28;2069456;27;46347;-64
2023/01/26 01:49:05;;;;;;;;;57.75;46.00;;;;;5.30;66.29;101875.56;2068672;27;46872;-64
2023/01/26 01:50:15;;;;;;;;;61.40;50.40;;;;;5.29;66.16;101872.06;2066745;27;46771;-64
2023/01/26 01:51:38;;;;;;;;;62.20;48.20;;;;;5.30;66.19;101871.19;2066020;27;47498;-64
2023/01/26 01:52:39;;;;;;;;;58.60;47.60;;;;;5.29;66.29;101864.16;2088144;28;48231;-64
2023/01/26 01:53:43;;;;;;;;;60.20;47.60;;;;;5.29;66.43;101863.28;2089668;28;46418;-65
2023/01/26 01:54:53;;;;;;;;;64.40;52.00;;;;;5.30;66.20;101867.69;2087301;28;46814;-65
2023/01/26 01:56:01;;;;;;;;;61.80;46.20;;;;;5.30;66.45;101867.69;2090519;28;45703;-65
2023/01/26 01:57:14;;;;;;;;;57.40;46.20;;;;;5.30;66.76;101865.94;2087259;28;46914;-64
2023/01/26 01:58:14;;;;;;;;;54.60;44.40;;;;;5.31;66.88;101867.72;2085139;28;46915;-64
2023/01/26 01:59:19;;;;;;;;;60.00;48.00;;;;;5.30;66.75;101868.56;2078187;28;46370;-65
2023/01/26 02:00:22;;;;;;;;;57.40;45.80;;;;;5.31;66.43;101861.56;2091027;28;46596;-64
2023/01/26 02:01:23;;;;;;;;;56.00;46.40;;;;;5.29;65.97;101871.19;2095218;28;46792;-62
2023/01/26 02:02:24;;;;;;;;;66.60;50.80;;;;;5.29;66.75;101868.53;2089731;28;46561;-65
2023/01/26 02:03:27;;;;;;;;;57.25;47.25;;;;;5.28;66.55;101862.41;2087334;28;46494;-64
2023/01/26 02:04:28;;;;;;;;;60.80;48.40;;;;;5.28;66.85;101867.66;2083718;28;46284;-64
2023/01/26 02:05:32;;;;;;;;;56.50;46.50;;;;;5.28;66.29;101867.66;2086143;28;45425;-64
2023/01/26 02:06:54;;;;;;;;;60.00;48.00;;;;;5.27;66.58;101868.53;2088170;28;46782;-65
2023/01/26 02:07:55;;;;;;;;;56.80;47.00;;;;;5.26;66.61;101868.50;2081666;28;46389;-66
2023/01/26 02:08:56;;;;;;;;;59.00;48.00;;;;;5.24;66.22;101864.94;2078844;28;46692;-65
2023/01/26 02:11:27;;;;;;;;;57.00;46.80;;;;;5.24;66.66;101862.31;2086906;28;47362;-66
2023/01/26 02:12:29;;;;;;;;;64.80;49.00;;;;;5.24;66.30;101857.94;2089409;28;46981;-65
2023/01/26 02:13:32;;;;;;;;;56.80;46.80;;;;;5.23;66.59;101858.81;2087748;28;46464;-65
2023/01/26 02:14:32;;;;;;;;;61.00;47.80;;;;;5.22;66.46;101856.16;2087807;28;46367;-65
2023/01/26 02:15:33;;;;;;;;;58.50;48.25;;;;;5.22;66.73;101854.41;2087665;28;46117;-68
2023/01/26 02:16:34;;;;;;;;;59.75;46.25;;;;;5.22;66.63;101858.78;2088310;28;46851;-65
2023/01/26 02:17:35;;;;;;;;;45.60;39.20;;;;;5.23;66.59;101860.56;2089601;28;46060;-64
2023/01/26 02:18:36;;;;;;;;;58.20;45.60;;;;;5.24;66.27;101859.69;2088651;28;45994;-64
2023/01/26 02:19:46;;;;;;;;;54.75;45.25;;;;;5.23;66.63;101858.81;2086420;28;46470;-63
2023/01/26 02:20:54;;;;;;;;;60.60;48.80;;;;;5.23;66.91;101857.91;2087547;28;46641;-64
2023/01/26 02:22:03;;;;;;;;;58.40;47.20;;;;;5.23;66.93;101868.44;2089567;28;46417;-64
2023/01/26 02:23:25;;;;;;;;;56.40;46.20;;;;;5.23;66.38;101868.44;2087163;28;46328;-63
2023/01/26 02:24:33;;;;;;;;;57.40;46.60;;;;;5.24;66.59;101864.94;2089550;28;45882;-63
2023/01/26 02:25:51;;;;;;;;;60.60;47.80;;;;;5.23;66.70;101856.16;2088799;28;46641;-63
2023/01/26 02:26:53;;;;;;;;;66.00;53.00;;;;;5.25;66.49;101856.19;2087976;28;45961;-64
2023/01/26 02:27:53;;;;;;;;;57.40;47.40;;;;;5.24;66.78;101857.94;2087823;28;45620;-64
2023/01/26 02:28:54;;;;;;;;;63.00;50.25;;;;;5.25;67.10;101850.94;2087360;28;46404;-63
2023/01/26 02:29:57;;;;;;;;;62.25;49.25;;;;;5.24;66.85;101855.31;2090462;28;46339;-65
2023/01/26 02:30:58;;;;;;;;;58.00;48.60;;;;;5.25;66.78;101850.94;2058188;28;45812;-65
2023/01/26 02:31:58;;;;;;;;;60.20;50.00;;;;;5.22;66.56;101854.41;2060412;28;46730;-66
2023/01/26 02:32:58;;;;;;;;;57.00;48.00;;;;;5.22;66.88;101853.53;2068478;28;46201;-66
2023/01/26 02:33:59;;;;;;;;;56.75;48.00;;;;;5.21;66.67;101857.91;2068982;27;46318;-65
2023/01/26 02:34:59;;;;;;;;;59.25;48.00;;;;;5.20;66.75;101853.47;2064564;28;46190;-64
2023/01/26 02:36:01;;;;;;;;;67.00;53.50;;;;;5.20;67.28;101852.56;2066781;27;46879;-67
2023/01/26 02:37:02;;;;;;;;;55.40;46.20;;;;;5.19;67.05;101850.81;2055508;28;47354;-65
2023/01/26 02:38:02;;;;;;;;;63.50;49.25;;;;;5.16;67.09;101854.28;2060894;28;46304;-64
2023/01/26 02:39:24;;;;;;;;;57.00;46.75;;;;;5.16;66.49;101851.63;2068676;27;45969;-65
2023/01/26 02:40:43;;;;;;;;;67.40;50.60;;;;;5.14;66.78;101855.09;2068253;27;46489;-65
2023/01/26 02:43:03;;;;;;;;;60.00;47.40;;;;;5.13;67.06;101854.22;2064560;27;46805;-65
2023/01/26 02:44:08;;;;;;;;;64.75;49.00;;;;;5.13;67.35;101848.06;2066371;28;47100;-64
2023/01/26 02:45:15;;;;;;;;;61.80;50.00;;;;;5.13;66.97;101845.44;2063817;27;46628;-64
2023/01/26 02:46:15;;;;;;;;;61.40;47.60;;;;;5.12;67.20;101852.44;2065463;27;45232;-65
2023/01/26 02:47:17;;;;;;;;;56.00;46.75;;;;;5.11;66.84;101842.78;2065243;27;46664;-65
2023/01/26 02:49:45;;;;;;;;;60.00;49.40;;;;;5.10;67.29;101843.66;2069932;28;46135;-64
2023/01/26 02:49:49;;;;;;;;;58.60;47.80;;;;;5.10;66.87;101843.66;2061953;28;46603;-65
2023/01/26 02:50:49;;;;;;;;;61.00;50.60;;;;;5.08;66.72;101840.06;2066669;28;46411;-65
2023/01/26 02:51:50;;;;;;;;;61.00;48.00;;;;;5.07;67.26;101838.31;2059849;28;46373;-65
2023/01/26 02:52:50;;;;;;;;;57.00;47.50;;;;;5.05;67.60;101837.41;2061533;28;46664;-65
2023/01/26 02:53:50;;;;;;;;;58.75;48.25;;;;;5.05;67.68;101842.66;2063106;28;46544;-65
2023/01/26 02:56:11;;;;;;;;;67.80;50.20;;;;;5.07;67.46;101840.06;2057194;28;46911;-64
2023/01/26 02:57:11;;;;;;;;;58.75;44.75;;;;;5.08;67.26;101836.56;2057550;28;46232;-65
2023/01/26 02:58:12;;;;;;;;;65.50;47.25;;;;;5.09;67.45;101844.50;2060033;28;46359;-65
2023/01/26 02:59:12;;;;;;;;;64.00;48.25;;;;;5.10;67.57;101841.03;2066964;28;46283;-63
2023/01/26 03:00:26;;;;;;;;;63.50;51.75;;;;;5.11;67.07;101840.16;2062380;27;46382;-64
2023/01/26 03:01:26;;;;;;;;;63.60;49.80;;;;;5.13;67.66;101846.34;2064813;28;46735;-63
2023/01/26 03:02:26;;;;;;;;;61.25;49.00;;;;;5.13;67.24;101837.56;2058244;28;45635;-64
2023/01/26 03:03:40;;;;;;;;;57.50;49.25;;;;;5.14;67.09;101836.69;2062926;28;46842;-65
2023/01/26 03:04:41;;;;;;;;;63.20;49.20;;;;;5.14;67.57;101840.22;2054311;28;46483;-64
2023/01/26 03:05:42;;;;;;;;;52.60;43.40;;;;;5.13;67.26;101846.34;2063188;28;45535;-64
2023/01/26 03:06:42;;;;;;;;;58.50;47.00;;;;;5.11;67.16;101842.78;2063581;28;46888;-64
2023/01/26 03:07:42;;;;;;;;;56.50;44.25;;;;;5.12;67.62;101838.41;2061703;28;46624;-63
2023/01/26 03:08:43;;;;;;;;;66.00;49.75;;;;;5.11;67.49;101844.53;2050163;28;46498;-64
2023/01/26 03:09:43;;;;;;;;;48.00;42.00;;;;;5.09;67.56;101831.34;2063577;28;47016;-64
2023/01/26 03:10:46;;;;;;;;;60.50;48.25;;;;;5.07;67.50;101830.41;2061155;28;46379;-64
2023/01/26 03:11:46;;;;;;;;;65.20;50.60;;;;;5.07;67.31;101837.41;2051090;28;46973;-65
2023/01/26 03:12:46;;;;;;;;;61.50;48.50;;;;;5.05;67.53;101828.63;2047042;28;46947;-65
2023/01/26 03:13:47;;;;;;;;;62.00;49.25;;;;;5.03;67.27;101837.38;2051973;28;46867;-63
2023/01/26 03:15:33;;;;;;;;;61.00;48.00;;;;;5.03;67.29;101836.50;2059963;28;46204;-65
2023/01/26 03:16:10;;;;;;;;;59.40;49.40;;;;;5.00;67.63;101828.53;2097339;28;46550;-63
2023/01/26 03:17:10;;;;;;;;;61.80;51.60;;;;;4.99;67.37;101832.91;2102850;27;45203;-64
2023/01/26 03:27:33;;;;;;;;;59.00;47.60;;;;;4.96;67.45;101818.84;2103611;27;46520;-65
2023/01/26 03:28:33;;;;;;;;;63.20;49.60;;;;;4.94;67.56;101816.16;2110722;27;46392;-64
2023/01/26 03:29:34;;;;;;;;;61.75;47.50;;;;;4.94;67.45;101810.88;2102351;27;46793;-65
2023/01/26 03:30:34;;;;;;;;;60.25;47.25;;;;;4.93;67.86;101817.00;2098495;28;46768;-63
2023/01/26 03:31:34;;;;;;;;;58.75;45.50;;;;;4.92;67.98;101817.88;2111233;27;46658;-64
2023/01/26 03:32:35;;;;;;;;;60.75;49.75;;;;;4.91;67.69;101821.34;2108149;27;46644;-65
2023/01/26 03:33:35;;;;;;;;;60.25;48.00;;;;;4.88;67.77;101810.78;2108788;27;46502;-64
2023/01/26 03:34:35;;;;;;;;;62.00;48.50;;;;;4.89;67.82;101817.81;2112128;27;46023;-63
2023/01/26 03:35:36;;;;;;;;;51.75;44.25;;;;;4.86;67.94;101815.13;2110898;27;46522;-64
2023/01/26 03:36:36;;;;;;;;;58.50;44.50;;;;;4.85;67.54;101813.38;2103514;27;46879;-63
2023/01/26 03:37:42;;;;;;;;;61.00;49.25;;;;;4.84;67.68;101813.34;2094367;28;46220;-63
2023/01/26 03:38:42;;;;;;;;;57.20;46.00;;;;;4.84;67.62;101813.34;2104188;27;46367;-65
2023/01/26 03:56:49;;;;;;;;;62.00;50.80;;;;;4.90;68.35;101803.81;2070147;27;46579;-65
2023/01/26 03:57:49;;;;;;;;;54.75;44.00;;;;;4.90;68.15;101801.16;2068731;27;46817;-66
2023/01/26 03:58:52;;;;;;;;;52.00;44.00;;;;;4.90;68.23;101801.16;2093071;28;46234;-65
2023/01/26 03:59:52;;;;;;;;;53.00;46.20;;;;;4.90;68.24;101801.16;2096670;28;47086;-64
2023/01/26 04:00:53;;;;;;;;;56.25;42.75;;;;;4.88;67.92;101796.75;2063059;28;45972;-64
2023/01/26 04:08:27;;;;;;;;;57.80;47.40;;;;;4.89;68.29;101793.25;2064498;28;46603;-65
2023/01/26 04:09:28;;;;;;;;;61.00;46.50;;;;;4.87;67.98;101795.88;2068512;27;45951;-64
2023/01/26 04:10:29;;;;;;;;;56.40;43.40;;;;;4.88;68.22;101792.38;2068472;28;46368;-64
2023/01/26 04:11:29;;;;;;;;;64.25;49.75;;;;;4.88;68.41;101791.50;2069145;27;46437;-64
2023/01/26 04:12:29;;;;;;;;;56.25;47.00;;;;;4.88;68.80;101794.13;2067876;28;46266;-64
2023/01/26 04:21:28;;;;;;;;;60.40;48.40;;;;;4.93;68.35;101792.44;2069548;27;45764;-64
2023/01/26 04:22:29;;;;;;;;;62.00;48.50;;;;;4.92;68.73;101788.94;2071255;27;46504;-65
2023/01/26 04:23:29;;;;;;;;;54.25;45.50;;;;;4.93;68.10;101787.19;2071807;27;46314;-64
2023/01/26 04:24:30;;;;;;;;;63.25;49.25;;;;;4.93;68.71;101788.06;2064749;28;46639;-64
2023/01/26 04:25:30;;;;;;;;;59.00;47.50;;;;;4.94;68.35;101787.22;2068338;27;46489;-64
2023/01/26 04:26:33;;;;;;;;;58.75;47.50;;;;;4.95;68.33;101790.72;2065212;28;45487;-65
2023/01/26 04:27:33;;;;;;;;;55.80;47.20;;;;;4.94;68.48;101788.97;2069912;27;45809;-65
2023/01/26 04:28:34;;;;;;;;;60.50;48.75;;;;;4.95;68.36;101788.09;2070730;27;46801;-65
2023/01/26 04:29:35;;;;;;;;;47.50;42.50;;;;;4.95;68.38;101791.59;2070601;27;45841;-66
2023/01/26 04:30:35;;;;;;;;;61.75;49.50;;;;;4.97;68.24;101792.56;2070210;27;46845;-64
2023/01/26 04:31:36;;;;;;;;;57.25;46.50;;;;;4.97;68.35;101794.28;2097327;28;45610;-65
2023/01/26 04:32:37;;;;;;;;;55.40;43.00;;;;;4.98;68.91;101796.94;2086207;28;46792;-64
2023/01/26 04:33:37;;;;;;;;;63.00;49.50;;;;;4.99;68.28;101798.72;2061337;28;46339;-64
2023/01/26 04:34:37;;;;;;;;;65.50;50.75;;;;;5.01;68.77;101801.38;2069979;27;46732;-64
2023/01/26 04:35:38;;;;;;;;;60.00;47.00;;;;;5.01;68.65;101793.47;2071414;27;46085;-66
2023/01/26 04:36:38;;;;;;;;;60.25;47.25;;;;;5.03;68.58;101800.53;2065869;28;46561;-65
2023/01/26 04:37:39;;;;;;;;;52.25;44.00;;;;;5.05;68.09;101802.31;2069650;27;47260;-64
2023/01/26 04:38:39;;;;;;;;;58.75;47.25;;;;;5.04;68.23;101801.44;2070574;28;46355;-64
2023/01/26 04:39:39;;;;;;;;;56.75;48.25;;;;;5.06;68.47;101796.19;2070606;27;46465;-64
2023/01/26 04:40:40;;;;;;;;;68.50;50.75;;;;;5.05;68.48;101797.94;2063254;28;46465;-65
2023/01/26 04:41:40;;;;;;;;;57.00;46.25;;;;;5.06;68.13;101791.81;2061585;28;46470;-65
2023/01/26 04:42:40;;;;;;;;;62.25;50.50;;;;;5.07;68.47;101792.69;2053693;28;46068;-65
2023/01/26 04:43:40;;;;;;;;;58.25;47.00;;;;;5.07;68.70;101801.47;2061695;28;46889;-66
2023/01/26 04:44:41;;;;;;;;;54.25;46.50;;;;;5.07;68.29;101792.69;2070347;28;46588;-64
2023/01/26 04:45:41;;;;;;;;;62.00;49.25;;;;;5.08;68.21;101791.84;2069261;27;46636;-64
2023/01/26 04:46:42;;;;;;;;;57.25;47.00;;;;;5.08;68.86;101789.19;2070209;28;46176;-64
2023/01/26 04:47:42;;;;;;;;;57.75;47.50;;;;;5.08;68.49;101797.97;2064921;28;45696;-65
2023/01/26 04:48:42;;;;;;;;;56.00;48.25;;;;;5.09;68.85;101796.28;2068815;27;46314;-64
2023/01/26 04:49:43;;;;;;;;;58.00;47.25;;;;;5.09;68.63;101804.16;2071462;27;46688;-65
2023/01/26 04:50:43;;;;;;;;;55.75;46.00;;;;;5.10;68.80;101803.31;2094405;27;46876;-64
2023/01/26 04:51:43;;;;;;;;;60.25;50.00;;;;;5.10;68.60;101812.06;2069058;27;46506;-65
2023/01/26 04:52:44;;;;;;;;;60.25;50.00;;;;;5.11;68.35;101803.31;2105780;27;45449;-66
2023/01/26 04:53:45;;;;;;;;;54.00;44.25;;;;;5.11;68.58;101802.44;2102341;27;46136;-64
2023/01/26 04:54:45;;;;;;;;;57.80;47.60;;;;;5.11;68.87;101805.94;2063462;28;46868;-64
2023/01/26 04:55:46;;;;;;;;;53.75;43.25;;;;;5.12;68.41;101806.84;2070436;27;46762;-64
2023/01/26 04:56:46;;;;;;;;;55.25;46.00;;;;;5.12;68.79;101798.94;2077245;27;46934;-63
2023/01/26 04:57:46;;;;;;;;;59.75;46.75;;;;;5.13;68.81;101803.34;2068945;27;46514;-65
2023/01/26 04:58:47;;;;;;;;;58.25;46.00;;;;;5.14;68.31;101798.09;2090396;27;46698;-65
2023/01/26 04:59:47;;;;;;;;;53.25;43.50;;;;;5.11;68.05;101798.06;2067628;27;46751;-64
2023/01/26 05:00:51;;;;;;;;;55.75;43.25;;;;;5.11;68.71;101792.78;2110655;27;46443;-64
2023/01/26 05:01:52;;;;;;;;;47.60;43.20;;;;;5.09;68.02;101796.28;2079693;27;47052;-65
2023/01/26 05:02:52;;;;;;;;;60.00;48.00;;;;;5.08;68.30;101802.34;2055060;28;47723;-66
2023/01/26 05:03:53;;;;;;;;;55.00;44.50;;;;;5.08;68.38;101797.09;2062924;28;47134;-64
2023/01/26 05:04:53;;;;;;;;;54.50;42.75;;;;;5.08;68.41;101799.72;2073355;27;47033;-64
2023/01/26 05:05:54;;;;;;;;;55.75;43.50;;;;;5.08;68.35;101799.72;2067847;27;46642;-64
2023/01/26 05:06:54;;;;;;;;;54.00;44.75;;;;;5.08;68.56;101794.47;2098168;27;45849;-64
2023/01/26 05:07:54;;;;;;;;;50.50;42.75;;;;;5.08;68.44;101797.97;2075601;27;45927;-64
2023/01/26 05:08:55;;;;;;;;;29.00;19.75;;;;;5.07;68.34;101792.69;2071147;28;46207;-64
2023/01/26 05:09:55;;;;;;;;;51.75;43.00;;;;;5.08;68.35;101791.84;2071071;27;46825;-63
2023/01/26 05:10:55;;;;;;;;;45.25;38.25;;;;;5.08;68.83;101790.09;2069298;28;45593;-64
2023/01/26 05:12:32;;;;;;;;;54.50;42.75;;;;;5.08;68.27;101797.09;2066581;27;45586;-63
2023/01/26 05:13:16;;;;;;;;;61.60;45.60;;;;;5.08;68.45;101795.34;2081431;28;47000;-64
2023/01/26 05:14:16;;;;;;;;;59.50;48.00;;;;;5.06;68.30;101797.06;2063397;28;45937;-63
2023/01/26 05:15:16;;;;;;;;;34.25;27.50;;;;;5.05;68.40;101797.94;2101009;28;46820;-63
2023/01/26 05:16:17;;;;;;;;;63.00;45.00;;;;;5.05;68.65;101800.56;2085091;28;46709;-63
2023/01/26 05:17:17;;;;;;;;;48.25;39.50;;;;;5.03;67.94;101797.91;2104749;28;46186;-64
2023/01/26 05:18:17;;;;;;;;;54.25;44.75;;;;;5.01;68.23;101796.13;2095021;28;46255;-65
2023/01/26 05:19:18;;;;;;;;;52.75;43.75;;;;;4.99;67.97;101792.56;2096071;28;46295;-65
2023/01/26 05:20:18;;;;;;;;;62.50;48.00;;;;;4.98;68.18;101786.44;2062135;28;45988;-64
2023/01/26 05:21:18;;;;;;;;;45.00;41.00;;;;;5.00;68.27;101794.34;2077779;28;46225;-64
2023/01/26 05:22:19;;;;;;;;;57.75;44.00;;;;;4.99;68.33;101787.31;2062525;28;46768;-64
2023/01/26 05:23:19;;;;;;;;;54.50;44.00;;;;;4.98;68.33;101790.81;2099604;28;46787;-64
2023/01/26 05:24:19;;;;;;;;;58.50;46.00;;;;;4.98;68.14;101782.91;2083578;28;46617;-64
2023/01/26 05:25:20;;;;;;;;;55.50;46.00;;;;;4.97;68.49;101787.28;2104207;28;46549;-64
2023/01/26 05:26:21;;;;;;;;;57.25;43.50;;;;;4.98;68.53;101793.44;2104250;28;45533;-63
2023/01/26 05:27:21;;;;;;;;;58.25;47.00;;;;;4.99;68.51;101789.94;2086892;28;46846;-64
2023/01/26 05:28:22;;;;;;;;;51.50;39.75;;;;;4.99;68.83;101790.84;2087968;28;46008;-64
2023/01/26 05:29:22;;;;;;;;;58.50;44.75;;;;;5.01;68.48;101797.00;2067080;28;48568;-64
2023/01/26 05:30:22;;;;;;;;;58.75;49.00;;;;;5.02;69.06;101798.78;2087930;28;46906;-65
2023/01/26 05:31:23;;;;;;;;;55.50;43.50;;;;;5.03;68.63;101794.41;2087245;28;46258;-65